createdAt,value
2023-02-22T00:01:35.654Z,35.15
2023-02-22T00:04:04.004Z,37.28
2023-02-22T00:06:31.103Z,36.75
2023-02-22T00:08:58.753Z,34.63
2023-02-22T00:11:26.325Z,35.10
2023-02-22T00:13:57.019Z,36.55
2023-02-22T00:16:24.767Z,32.88
2023-02-22T00:18:51.999Z,34.72
2023-02-22T00:21:19.479Z,34.88
2023-02-22T00:23:47.509Z,31.58
2023-02-22T00:26:18.079Z,30.63
2023-02-22T00:28:50.042Z,28.83
2023-02-22T00:31:17.878Z,33.03
2023-02-22T00:33:45.563Z,31.13
2023-02-22T00:36:13.554Z,30.77
2023-02-22T00:38:41.637Z,34.17
2023-02-22T00:41:08.981Z,35.55
2023-02-22T00:43:36.117Z,28.08
2023-02-22T00:46:03.463Z,31.10
2023-02-22T00:48:30.566Z,30.33
2023-02-22T00:50:57.714Z,28.42
2023-02-22T00:53:25.564Z,30.92
2023-02-22T00:55:53.072Z,27.48
2023-02-22T00:58:20.927Z,29.13
2023-02-22T01:00:48.619Z,30.67
2023-02-22T01:03:17.194Z,28.70
2023-02-22T01:05:44.607Z,27.15
2023-02-22T01:08:13.340Z,27.90
2023-02-22T01:10:41.007Z,27.25
2023-02-22T01:13:09.478Z,26.10
2023-02-22T01:15:37.920Z,22.73
2023-02-22T01:18:05.472Z,26.45
2023-02-22T01:20:33.081Z,31.88
2023-02-22T01:23:01.018Z,26.73
2023-02-22T01:25:30.815Z,24.92
2023-02-22T01:27:59.011Z,32.22
2023-02-22T01:30:27.737Z,26.73
2023-02-22T01:32:55.352Z,29.70
2023-02-22T01:35:25.184Z,25.75
2023-02-22T01:37:52.371Z,25.88
2023-02-22T01:40:24.680Z,26.83
2023-02-22T01:42:53.392Z,26.55
2023-02-22T01:45:47.068Z,24.55
2023-02-22T01:48:20.999Z,26.88
2023-02-22T01:50:53.985Z,24.63
2023-02-22T01:53:23.051Z,25.75
2023-02-22T01:55:50.413Z,24.98
2023-02-22T01:58:21.747Z,27.42
2023-02-22T02:00:48.933Z,24.30
2023-02-22T02:03:21.833Z,27.15
2023-02-22T02:05:50.126Z,28.00
2023-02-22T02:08:32.133Z,28.55
2023-02-22T02:11:00.298Z,29.95
2023-02-22T02:13:28.028Z,28.83
2023-02-22T02:15:56.309Z,26.10
2023-02-22T02:18:24.712Z,27.38
2023-02-22T02:20:57.243Z,26.17
2023-02-22T02:23:49.449Z,28.30
2023-02-22T02:26:24.720Z,28.67
2023-02-22T02:31:18.604Z,24.90
2023-02-22T02:34:05.847Z,26.73
2023-02-22T02:36:44.402Z,30.17
2023-02-22T02:39:20.824Z,27.55
2023-02-22T02:41:50.647Z,28.70
2023-02-22T02:44:28.228Z,28.20
2023-02-22T02:47:08.934Z,29.95
2023-02-22T02:49:45.217Z,31.58
2023-02-22T02:52:13.307Z,30.63
2023-02-22T02:54:41.047Z,29.75
2023-02-22T02:57:09.421Z,31.23
2023-02-22T02:59:37.937Z,31.98
2023-02-22T03:02:35.284Z,30.15
2023-02-22T03:05:20.663Z,33.22
2023-02-22T03:07:47.763Z,31.80
2023-02-22T03:10:39.319Z,33.35
2023-02-22T03:13:24.556Z,30.08
2023-02-22T03:15:55.296Z,32.38
2023-02-22T03:18:30.027Z,32.38
2023-02-22T03:21:00.803Z,35.00
2023-02-22T03:23:33.199Z,34.25
2023-02-22T03:26:12.090Z,32.80
2023-02-22T03:31:17.867Z,31.02
2023-02-22T03:33:51.528Z,35.83
2023-02-22T03:36:27.366Z,35.53
2023-02-22T03:38:56.788Z,34.70
2023-02-22T03:41:25.232Z,34.63
2023-02-22T03:43:59.558Z,36.97
2023-02-22T03:46:29.313Z,36.72
2023-02-22T03:49:00.705Z,35.88
2023-02-22T03:51:32.728Z,37.47
2023-02-22T03:54:01.672Z,30.63
2023-02-22T03:56:47.351Z,35.80
2023-02-22T03:59:15.027Z,37.97
2023-02-22T04:01:42.307Z,36.25
2023-02-22T04:04:10.077Z,35.45
2023-02-22T04:06:38.726Z,35.78
2023-02-22T04:09:08.544Z,34.40
2023-02-22T04:11:35.668Z,37.33
2023-02-22T04:14:02.891Z,38.28
2023-02-22T04:16:30.120Z,40.65
2023-02-22T04:18:57.376Z,37.97
2023-02-22T04:21:24.535Z,39.92
2023-02-22T04:23:52.009Z,39.67
2023-02-22T04:26:19.221Z,32.50
2023-02-22T04:28:51.751Z,39.10
2023-02-22T04:31:22.960Z,37.88
2023-02-22T04:33:51.377Z,39.15
2023-02-22T04:36:24.080Z,45.38
2023-02-22T04:38:52.301Z,39.10
2023-02-22T04:41:21.373Z,41.45
2023-02-22T04:43:51.234Z,36.92
2023-02-22T04:46:21.746Z,43.72
2023-02-22T04:48:48.998Z,43.55
2023-02-22T04:51:17.794Z,38.15
2023-02-22T04:53:54.943Z,42.15
2023-02-22T04:56:22.067Z,43.22
2023-02-22T04:58:49.692Z,39.25
2023-02-22T05:01:17.175Z,42.53
2023-02-22T05:03:46.865Z,38.08
2023-02-22T05:06:14.003Z,43.28
2023-02-22T05:08:41.070Z,39.53
2023-02-22T05:11:08.195Z,39.72
2023-02-22T05:13:35.296Z,41.17
2023-02-22T05:16:03.810Z,38.40
2023-02-22T05:18:30.876Z,40.50
2023-02-22T05:20:57.951Z,41.35
2023-02-22T05:23:24.987Z,40.20
2023-02-22T05:25:52.084Z,44.28
2023-02-22T05:28:19.214Z,38.63
2023-02-22T05:30:46.889Z,46.47
2023-02-22T05:33:14.065Z,42.72
2023-02-22T05:35:41.222Z,41.72
2023-02-22T05:38:08.368Z,47.42
2023-02-22T05:40:35.510Z,44.00
2023-02-22T05:43:02.895Z,43.13
2023-02-22T05:45:30.552Z,43.40
2023-02-22T05:47:57.683Z,40.05
2023-02-22T05:50:25.006Z,44.30
2023-02-22T05:52:52.211Z,46.78
2023-02-22T05:55:20.634Z,49.55
2023-02-22T05:57:47.770Z,53.65
2023-02-22T06:00:17.276Z,46.33
2023-02-22T06:02:44.431Z,50.22
2023-02-22T06:05:11.679Z,49.38
2023-02-22T06:07:38.797Z,55.88
2023-02-22T06:10:06.105Z,42.33
2023-02-22T06:12:33.214Z,50.38
2023-02-22T06:15:00.342Z,53.78
2023-02-22T06:17:27.495Z,48.53
2023-02-22T06:19:54.646Z,55.67
2023-02-22T06:22:21.776Z,59.35
2023-02-22T06:24:48.839Z,56.70
2023-02-22T06:27:15.950Z,55.08
2023-02-22T06:29:46.639Z,54.90
2023-02-22T06:32:14.268Z,55.92
2023-02-22T06:34:41.468Z,52.58
2023-02-22T06:37:08.797Z,58.17
2023-02-22T06:39:35.925Z,55.88
2023-02-22T06:42:03.034Z,54.42
2023-02-22T06:44:30.148Z,48.90
2023-02-22T06:46:59.236Z,52.55
2023-02-22T06:49:27.278Z,51.83
2023-02-22T06:51:54.859Z,52.63
2023-02-22T06:54:22.722Z,52.03
2023-02-22T06:56:50.101Z,59.92
2023-02-22T06:59:17.532Z,55.08
2023-02-22T07:01:44.753Z,55.78
2023-02-22T07:04:11.896Z,49.72
2023-02-22T07:06:39.019Z,48.70
2023-02-22T07:09:06.086Z,47.90
2023-02-22T07:11:33.272Z,51.10
2023-02-22T07:14:00.460Z,52.33
2023-02-22T07:16:27.856Z,47.67
2023-02-22T07:18:55.075Z,48.60
2023-02-22T07:21:22.206Z,51.80
2023-02-22T07:23:53.414Z,53.72
2023-02-22T07:26:21.205Z,50.42
2023-02-22T07:28:48.724Z,58.22
2023-02-22T07:31:16.138Z,62.65
2023-02-22T07:33:43.449Z,61.17
2023-02-22T07:36:10.666Z,49.70
2023-02-22T07:38:37.797Z,55.90
2023-02-22T07:41:04.947Z,39.90
2023-02-22T07:43:32.119Z,45.28
2023-02-22T07:46:00.370Z,53.13
2023-02-22T07:48:28.783Z,51.53
2023-02-22T07:50:56.055Z,50.80
2023-02-22T07:53:26.698Z,50.53
2023-02-22T07:55:55.284Z,59.10
2023-02-22T07:58:24.267Z,51.58
2023-02-22T08:00:51.559Z,54.47
2023-02-22T08:03:19.731Z,58.45
2023-02-22T08:05:47.996Z,51.80
2023-02-22T08:08:17.743Z,56.45
2023-02-22T08:10:46.617Z,53.10
2023-02-22T08:13:13.773Z,52.28
2023-02-22T08:15:41.771Z,49.83
2023-02-22T08:18:10.148Z,50.65
2023-02-22T08:20:38.288Z,48.55
2023-02-22T08:23:06.549Z,48.83
2023-02-22T08:25:33.765Z,53.58
2023-02-22T08:28:02.260Z,50.88
2023-02-22T08:30:31.041Z,51.72
2023-02-22T08:32:58.618Z,54.45
2023-02-22T08:35:27.486Z,50.28
2023-02-22T08:37:57.157Z,46.20
2023-02-22T08:40:24.918Z,44.97
2023-02-22T08:42:52.290Z,42.88
2023-02-22T08:45:19.818Z,47.83
2023-02-22T08:47:47.367Z,39.67
2023-02-22T08:50:25.024Z,42.15
2023-02-22T08:52:52.728Z,39.65
2023-02-22T08:55:21.316Z,41.78
2023-02-22T08:57:48.388Z,41.42
2023-02-22T09:00:15.865Z,34.47
2023-02-22T09:02:42.955Z,34.78
2023-02-22T09:05:10.412Z,35.85
2023-02-22T09:07:37.560Z,35.42
2023-02-22T09:10:04.808Z,35.63
2023-02-22T09:12:31.964Z,34.10
2023-02-22T09:14:59.068Z,32.60
2023-02-22T09:17:26.208Z,31.75
2023-02-22T09:19:53.313Z,32.78
2023-02-22T09:22:20.385Z,34.50
2023-02-22T09:24:47.514Z,34.60
2023-02-22T09:27:14.866Z,36.63
2023-02-22T09:29:42.198Z,34.78
2023-02-22T09:32:09.446Z,33.83
2023-02-22T09:34:36.703Z,37.47
2023-02-22T09:37:08.585Z,38.08
2023-02-22T09:39:37.455Z,38.70
2023-02-22T09:42:10.847Z,35.90
2023-02-22T09:44:48.070Z,39.50
2023-02-22T09:47:18.112Z,37.38
2023-02-22T09:49:53.386Z,34.67
2023-02-22T09:52:36.184Z,34.15
2023-02-22T09:55:08.294Z,30.63
2023-02-22T09:57:42.974Z,36.83
2023-02-22T10:00:13.545Z,37.25
2023-02-22T10:02:48.866Z,38.60
2023-02-22T10:05:20.311Z,35.10
2023-02-22T10:07:52.174Z,37.15
2023-02-22T10:10:20.018Z,34.80
2023-02-22T10:12:47.204Z,35.30
2023-02-22T10:15:26.854Z,34.85
2023-02-22T10:18:30.916Z,34.15
2023-02-22T10:21:02.605Z,36.30
2023-02-22T10:23:46.799Z,35.08
2023-02-22T10:26:24.929Z,32.58
2023-02-22T10:29:09.931Z,37.67
2023-02-22T10:31:39.317Z,34.35
2023-02-22T10:34:12.459Z,33.33
2023-02-22T10:36:39.556Z,33.80
2023-02-22T10:39:27.044Z,35.10
2023-02-22T10:41:57.040Z,36.58
2023-02-22T10:44:24.931Z,32.75
2023-02-22T10:46:53.289Z,35.05
2023-02-22T10:49:22.409Z,32.78
2023-02-22T10:52:01.286Z,31.08
2023-02-22T10:54:34.548Z,36.28
2023-02-22T10:57:03.725Z,33.60
2023-02-22T10:59:35.317Z,29.00
2023-02-22T11:02:17.013Z,30.73
2023-02-22T11:04:49.662Z,29.70
2023-02-22T11:07:19.796Z,32.83
2023-02-22T11:09:50.184Z,32.13
2023-02-22T11:12:18.972Z,36.60
2023-02-22T11:14:46.121Z,34.97
2023-02-22T11:17:17.746Z,32.90
2023-02-22T11:19:48.963Z,31.10
2023-02-22T11:22:42.553Z,34.95
2023-02-22T11:25:09.867Z,31.77
2023-02-22T11:27:41.465Z,31.48
2023-02-22T11:30:11.641Z,31.77
2023-02-22T11:32:44.698Z,35.53
2023-02-22T11:35:20.544Z,33.95
2023-02-22T11:37:47.976Z,31.83
2023-02-22T11:40:22.091Z,31.52
2023-02-22T11:42:50.153Z,34.00
2023-02-22T11:45:23.638Z,33.50
2023-02-22T11:47:52.477Z,36.95
2023-02-22T11:50:27.757Z,32.83
2023-02-22T11:53:02.118Z,33.20
2023-02-22T11:55:42.866Z,28.23
2023-02-22T11:58:24.255Z,35.10
2023-02-22T12:00:57.954Z,34.13
2023-02-22T12:03:43.810Z,37.40
2023-02-22T12:06:40.366Z,33.00
2023-02-22T12:09:07.421Z,32.95
2023-02-22T12:11:47.721Z,36.85
2023-02-22T12:14:14.833Z,33.40
2023-02-22T12:17:02.002Z,33.28
2023-02-22T12:19:33.477Z,36.72
2023-02-22T12:22:02.840Z,37.90
2023-02-22T12:24:44.470Z,34.38
2023-02-22T12:27:18.252Z,35.20
2023-02-22T12:29:53.352Z,32.33
2023-02-22T12:32:30.600Z,32.97
2023-02-22T12:35:05.597Z,32.40
2023-02-22T12:37:44.868Z,35.05
2023-02-22T12:40:24.960Z,32.70
2023-02-22T12:43:27.042Z,33.15
2023-02-22T12:46:00.260Z,32.08
2023-02-22T12:48:33.500Z,32.30
2023-02-22T12:51:04.436Z,30.08
2023-02-22T12:53:40.643Z,31.48
2023-02-22T12:56:17.012Z,31.55
2023-02-22T12:58:50.019Z,34.63
2023-02-22T13:03:45.391Z,29.70
2023-02-22T13:06:25.297Z,30.65
2023-02-22T13:09:07.871Z,34.28
2023-02-22T13:11:53.469Z,32.58
2023-02-22T13:14:36.453Z,31.65
2023-02-22T13:17:13.430Z,35.95
2023-02-22T13:19:46.100Z,31.02
2023-02-22T13:22:36.559Z,33.65
2023-02-22T13:25:06.839Z,29.77
2023-02-22T13:27:38.011Z,34.42
2023-02-22T13:30:06.655Z,31.45
2023-02-22T13:32:43.646Z,31.50
2023-02-22T13:35:10.759Z,33.85
2023-02-22T13:37:40.998Z,31.58
2023-02-22T13:40:08.117Z,30.98
2023-02-22T13:43:16.318Z,31.55
2023-02-22T13:45:55.300Z,32.45
2023-02-22T13:48:31.985Z,31.95
2023-02-22T13:51:06.599Z,32.00
2023-02-22T13:53:39.949Z,31.65
2023-02-22T13:56:07.270Z,32.80
2023-02-22T13:58:47.220Z,29.67
2023-02-22T14:01:34.274Z,28.67
2023-02-22T14:04:33.123Z,32.38
2023-02-22T14:07:01.609Z,33.85
2023-02-22T14:09:48.181Z,27.35
2023-02-22T14:12:30.310Z,28.70
2023-02-22T14:15:18.720Z,34.85
2023-02-22T14:18:01.018Z,29.98
2023-02-22T14:20:32.193Z,32.42
2023-02-22T14:23:19.823Z,29.35
2023-02-22T14:25:47.190Z,32.97
2023-02-22T14:28:35.342Z,30.95
2023-02-22T14:31:25.746Z,28.77
2023-02-22T14:34:11.043Z,29.38
2023-02-22T14:36:56.292Z,28.50
2023-02-22T14:39:23.389Z,28.63
2023-02-22T14:41:56.782Z,27.83
2023-02-22T14:44:26.642Z,28.85
2023-02-22T14:46:56.366Z,30.35
2023-02-22T14:49:25.694Z,27.52
2023-02-22T14:51:56.198Z,28.35
2023-02-22T14:54:26.551Z,27.27
2023-02-22T14:57:00.528Z,26.63
2023-02-22T14:59:28.274Z,22.73
2023-02-22T15:02:12.432Z,27.20
2023-02-22T15:04:43.814Z,27.85
2023-02-22T15:07:22.412Z,28.75
2023-02-22T15:09:49.971Z,29.10
2023-02-22T15:12:24.150Z,27.73
2023-02-22T15:14:51.662Z,25.90
2023-02-22T15:17:22.212Z,24.80
2023-02-22T15:19:49.592Z,28.67
2023-02-22T15:22:36.433Z,24.80
2023-02-22T15:25:05.905Z,27.08
2023-02-22T15:27:36.854Z,25.77
2023-02-22T15:30:06.434Z,24.50
2023-02-22T15:32:57.200Z,24.85
2023-02-22T15:35:30.736Z,26.73
2023-02-22T15:38:03.998Z,26.48
2023-02-22T15:40:33.051Z,26.27
2023-02-22T15:43:08.809Z,27.58
2023-02-22T15:45:42.638Z,28.70
2023-02-22T15:48:11.021Z,29.65
2023-02-22T15:50:38.526Z,27.58
2023-02-22T15:53:05.648Z,28.23
2023-02-22T15:55:37.294Z,29.77
2023-02-22T15:58:23.592Z,24.13
2023-02-22T16:00:59.836Z,29.42
2023-02-22T16:03:33.809Z,26.30
2023-02-22T16:06:01.549Z,27.42
2023-02-22T16:08:49.161Z,26.48
2023-02-22T16:11:29.897Z,29.17
2023-02-22T16:14:01.935Z,28.58
2023-02-22T16:16:30.527Z,27.13
2023-02-22T16:19:26.206Z,25.35
2023-02-22T16:21:54.888Z,25.20
2023-02-22T16:24:29.346Z,27.08
2023-02-22T16:27:04.689Z,25.58
2023-02-22T16:29:31.982Z,26.73
2023-02-22T16:31:59.328Z,28.10
2023-02-22T16:34:26.545Z,26.83
2023-02-22T16:36:55.457Z,30.75
2023-02-22T16:39:27.352Z,27.42
2023-02-22T16:41:56.086Z,31.45
2023-02-22T16:44:25.096Z,30.92
2023-02-22T16:46:52.764Z,28.80
2023-02-22T16:49:20.451Z,26.73
2023-02-22T16:51:55.254Z,34.30
2023-02-22T16:54:41.846Z,27.92
2023-02-22T16:57:15.396Z,27.55
2023-02-22T16:59:42.506Z,31.25
2023-02-22T17:02:16.040Z,32.55
2023-02-22T17:04:49.367Z,34.63
2023-02-22T17:07:17.638Z,28.50
2023-02-22T17:09:44.891Z,33.10
2023-02-22T17:12:11.958Z,32.75
2023-02-22T17:14:40.919Z,30.55
2023-02-22T17:17:09.219Z,31.98
2023-02-22T17:19:37.638Z,36.22
2023-02-22T17:22:06.153Z,33.78
2023-02-22T17:24:33.964Z,38.28
2023-02-22T17:27:02.149Z,35.97
2023-02-22T17:29:29.843Z,36.85
2023-02-22T17:31:57.091Z,40.40
2023-02-22T17:34:24.441Z,45.13
2023-02-22T17:36:51.603Z,42.55
2023-02-22T17:39:18.790Z,46.28
2023-02-22T17:41:45.975Z,48.35
2023-02-22T17:44:13.451Z,47.95
2023-02-22T17:46:43.454Z,44.60
2023-02-22T17:49:13.556Z,48.70
2023-02-22T17:51:41.153Z,58.05
2023-02-22T17:54:09.477Z,51.20
2023-02-22T17:56:37.497Z,48.33
2023-02-22T17:59:04.891Z,53.50
2023-02-22T18:01:33.695Z,47.63
2023-02-22T18:04:01.482Z,53.10
2023-02-22T18:06:29.984Z,52.58
2023-02-22T18:08:57.828Z,47.45
2023-02-22T18:11:26.424Z,50.40
2023-02-22T18:13:57.598Z,50.47
2023-02-22T18:16:25.859Z,48.97
2023-02-22T18:18:53.685Z,50.03
2023-02-22T18:21:20.836Z,57.67
2023-02-22T18:23:48.133Z,50.83
2023-02-22T18:26:19.860Z,52.00
2023-02-22T18:28:50.647Z,51.63
2023-02-22T18:31:19.317Z,53.67
2023-02-22T18:33:49.804Z,56.35
2023-02-22T18:36:22.535Z,56.72
2023-02-22T18:38:50.642Z,63.42
2023-02-22T18:41:18.615Z,58.30
2023-02-22T18:43:50.726Z,65.38
2023-02-22T18:46:19.295Z,65.05
2023-02-22T18:48:47.845Z,65.97
2023-02-22T18:51:17.008Z,67.78
2023-02-22T18:53:47.146Z,69.40
2023-02-22T18:56:15.860Z,66.40
2023-02-22T18:58:43.226Z,72.00
2023-02-22T19:01:15.621Z,67.22
2023-02-22T19:03:42.877Z,72.57
2023-02-22T19:06:10.042Z,71.78
2023-02-22T19:08:42.098Z,68.28
2023-02-22T19:11:11.017Z,69.07
2023-02-22T19:13:38.345Z,70.50
2023-02-22T19:16:07.425Z,70.75
2023-02-22T19:18:34.896Z,73.32
2023-02-22T19:21:03.012Z,73.55
2023-02-22T19:23:34.439Z,73.80
2023-02-22T19:26:03.102Z,76.00
2023-02-22T19:28:33.940Z,75.93
2023-02-22T19:31:14.317Z,82.25
2023-02-22T19:33:41.664Z,72.40
2023-02-22T19:36:09.731Z,69.05
2023-02-22T19:38:36.864Z,71.55
2023-02-22T19:41:10.804Z,68.43
2023-02-22T19:43:37.950Z,78.35
2023-02-22T19:46:05.988Z,77.97
2023-02-22T19:48:33.091Z,72.28
2023-02-22T19:51:06.222Z,83.63
2023-02-22T19:56:00.753Z,75.70
2023-02-22T19:58:27.980Z,80.88
2023-02-22T20:00:55.186Z,70.47
2023-02-22T20:03:25.734Z,74.85
2023-02-22T20:05:52.934Z,72.80
2023-02-22T20:08:20.624Z,76.68
2023-02-22T20:10:47.726Z,73.50
2023-02-22T20:13:16.932Z,60.80
2023-02-22T20:15:45.091Z,64.25
2023-02-22T20:18:12.173Z,67.53
2023-02-22T20:20:40.214Z,68.32
2023-02-22T20:23:09.378Z,66.28
2023-02-22T20:25:37.763Z,61.10
2023-02-22T20:28:06.912Z,63.10
2023-02-22T20:30:37.251Z,63.55
2023-02-22T20:33:05.097Z,62.17
2023-02-22T20:35:33.919Z,64.57
2023-02-22T20:38:01.385Z,67.10
2023-02-22T20:40:28.423Z,64.40
2023-02-22T20:42:56.204Z,70.00
2023-02-22T20:45:23.312Z,66.00
2023-02-22T20:47:50.458Z,70.13
2023-02-22T20:50:17.670Z,71.70
2023-02-22T20:52:45.160Z,63.08
2023-02-22T20:55:12.284Z,65.82
2023-02-22T20:57:39.398Z,63.20
2023-02-22T21:00:10.453Z,64.18
2023-02-22T21:02:41.046Z,66.40
2023-02-22T21:05:08.167Z,61.03
2023-02-22T21:07:35.369Z,61.10
2023-02-22T21:10:02.508Z,63.75
2023-02-22T21:12:29.637Z,64.03
2023-02-22T21:14:56.770Z,66.05
2023-02-22T21:17:28.751Z,58.47
2023-02-22T21:19:56.597Z,60.13
2023-02-22T21:22:25.156Z,55.83
2023-02-22T21:24:53.346Z,58.55
2023-02-22T21:27:20.464Z,57.78
2023-02-22T21:29:47.645Z,54.95
2023-02-22T21:32:14.983Z,53.33
2023-02-22T21:34:42.255Z,56.42
2023-02-22T21:37:09.414Z,55.00
2023-02-22T21:39:36.582Z,55.17
2023-02-22T21:42:06.978Z,56.17
2023-02-22T21:44:34.181Z,56.67
2023-02-22T21:47:01.330Z,50.53
2023-02-22T21:49:28.827Z,55.22
2023-02-22T21:51:56.398Z,53.22
2023-02-22T21:54:23.521Z,50.42
2023-02-22T21:56:50.721Z,49.50
2023-02-22T21:59:19.941Z,49.50
2023-02-22T22:01:49.889Z,53.53
2023-02-22T22:04:21.188Z,51.22
2023-02-22T22:06:50.756Z,56.28
2023-02-22T22:09:18.257Z,50.53
2023-02-22T22:11:46.824Z,51.55
2023-02-22T22:14:14.037Z,53.38
2023-02-22T22:16:41.151Z,53.58
2023-02-22T22:19:08.328Z,51.35
2023-02-22T22:21:35.451Z,55.08
2023-02-22T22:24:04.841Z,51.10
2023-02-22T22:26:33.814Z,52.20
2023-02-22T22:29:04.023Z,54.00
2023-02-22T22:31:31.821Z,56.30
2023-02-22T22:33:59.212Z,51.78
2023-02-22T22:36:27.350Z,52.58
2023-02-22T22:38:57.306Z,52.67
2023-02-22T22:41:24.867Z,47.70
2023-02-22T22:43:53.944Z,51.42
2023-02-22T22:46:21.530Z,53.15
2023-02-22T22:48:48.697Z,47.88
2023-02-22T22:51:18.497Z,53.42
2023-02-22T22:53:46.574Z,51.38
2023-02-22T22:56:16.270Z,48.95
2023-02-22T22:58:44.631Z,50.67
2023-02-22T23:01:18.041Z,49.67
2023-02-22T23:03:55.021Z,55.35
2023-02-22T23:06:26.504Z,52.92
2023-02-22T23:08:59.909Z,45.65
2023-02-22T23:11:28.623Z,52.97
2023-02-22T23:13:56.394Z,51.38
2023-02-22T23:16:24.737Z,51.13
2023-02-22T23:18:51.963Z,51.95
2023-02-22T23:21:24.134Z,49.03
2023-02-22T23:23:55.146Z,54.28
2023-02-22T23:26:22.332Z,49.38
2023-02-22T23:28:49.897Z,55.78
2023-02-22T23:31:18.083Z,49.58
2023-02-22T23:33:48.344Z,50.63
2023-02-22T23:36:16.481Z,55.80
2023-02-22T23:38:44.097Z,56.53
2023-02-22T23:41:12.679Z,53.90
2023-02-22T23:43:40.506Z,53.90
2023-02-22T23:46:12.220Z,56.17
2023-02-22T23:48:40.266Z,54.20
2023-02-22T23:51:09.142Z,51.83
2023-02-22T23:53:38.074Z,54.30
2023-02-22T23:56:09.874Z,46.40
2023-02-22T23:58:38.227Z,53.17
